Portada
METAR-TAF:

METAR-TAF

Aeroports :

Ribeirão Preto, São Paulo, Brasil

latitud: 21-08S, longitud: 047-47W, altitud: 549 m

Observació

L'informe es va fer fa 51 minuts, a les 23:00 UTC
Vent 4 kt del Nord/Nord-Est
Temperatura 26°C
Humitat 32%
Pressió 1014 hPa
Visibilitat: 9000 m

METAR: SBRP 122300Z 02004KT 9000 NSC 26/08 Q1014

Hora: 20:51 (23:51 UTC)

Pronòstic

L'informe es va fer fa 1 hora i 51 minuts, a les 22:00 UTC
Pronòstic vàlid del 13 a les 00 UTC al 13 a les 12 UTC
Vent 5 kt del Nord/Nord-Est
Visibilitat: 9000 m
Núvols disperses a una alçada de 4900 ft
Evolucionant progressivament
l' 13 a les 03 UTC al 13 a les 05 UTC
Vent 5 kt del Sud/Sud-Est

TAF: SBRP 122200Z 1300/1312 03005KT 9000 SCT049 TX23/1300Z TN15/1309Z BECMG 1303/1305 15005KT RMK PHH

Observacions i pronòstics meteorològics de més de 4000 aeroports (METAR i TAF).

Les estacions disponibles són els punts grocs i vermells al mapa.

Posi el ratolí al punt desitjat per veure el nom de l'estació.

Feu clic per veure les observacions i els pronòstics meteorològics.

Per canviar el mapa: feu clic els botons verds amb una creu de color negre per apropar; al botó verd amb un guió per allunyar la imatge; o en les fletxes verdes per a mapes adjacents.


METAR-TAF: